Time;durP1;ratioP1;P1;durP2;ratioP2;P2;SDS_P1;SDS_P2;PMS_P1;PMS_P2;Temp;Humidity;BMP_temperature;BMP_pressure;BME280_temperature;BME280_humidity;BME280_pressure;Samples;Min_cycle;Max_cycle;Signal;HPM_P1;HPM_P2
2022/12/10 00:01:50;;;;;;;45.28;17.10;;;;;;;-2.97;81.47;100780.06;5098354;28;20390;-86
2022/12/10 00:04:15;;;;;;;46.05;19.80;;;;;;;-2.89;82.62;100773.25;5104170;28;20464;-86
2022/12/10 00:06:42;;;;;;;48.15;19.83;;;;;;;-2.84;83.08;100758.69;5104452;28;20057;-86
2022/12/10 00:09:12;;;;;;;52.03;19.05;;;;;;;-2.79;81.24;100772.56;5097115;28;20032;-86
2022/12/10 00:11:38;;;;;;;52.38;19.40;;;;;;;-2.86;80.20;100781.06;5077170;28;20085;-86
2022/12/10 00:14:04;;;;;;;48.28;19.15;;;;;;;-2.86;82.22;100787.09;5086023;28;20030;-86
2022/12/10 00:16:30;;;;;;;48.78;20.02;;;;;;;-2.83;81.23;100796.66;5077849;28;20422;-86
2022/12/10 00:18:56;;;;;;;43.05;16.75;;;;;;;-3.04;79.62;100778.22;5089780;28;20027;-86
2022/12/10 00:21:30;;;;;;;41.13;18.60;;;;;;;-3.05;79.88;100802.34;5105576;28;20039;-87
2022/12/10 00:23:56;;;;;;;41.40;16.73;;;;;;;-3.20;80.02;100774.56;5106077;28;20020;-86
2022/12/10 00:26:24;;;;;;;51.72;20.25;;;;;;;-3.00;82.75;100804.16;5078799;28;20533;-87
2022/12/10 00:28:53;;;;;;;46.40;18.33;;;;;;;-2.83;82.97;100799.22;5086063;28;20475;-87
2022/12/10 00:31:25;;;;;;;44.88;19.13;;;;;;;-2.76;82.94;100798.44;5098303;28;20063;-87
2022/12/10 00:33:52;;;;;;;52.72;20.23;;;;;;;-2.75;83.18;100782.09;5091181;28;20507;-87
2022/12/10 00:36:27;;;;;;;52.22;20.55;;;;;;;-2.66;83.51;100795.16;5091157;28;20030;-86
2022/12/10 00:38:53;;;;;;;52.33;19.00;;;;;;;-2.72;81.17;100795.06;5102042;28;20050;-87
2022/12/10 00:41:18;;;;;;;53.63;20.55;;;;;;;-2.82;81.16;100803.56;5088305;28;20473;-86
2022/12/10 00:43:44;;;;;;;52.42;19.48;;;;;;;-2.92;80.42;100799.97;5099903;28;20104;-87
2022/12/10 00:46:12;;;;;;;49.75;18.92;;;;;;;-2.95;81.51;100792.16;5101197;28;20034;-87
2022/12/10 00:48:38;;;;;;;50.25;19.00;;;;;;;-2.92;81.27;100779.28;5081605;28;20085;-86
2022/12/10 00:51:13;;;;;;;44.58;17.80;;;;;;;-2.88;81.33;100796.56;5081900;28;20043;-87
2022/12/10 00:53:40;;;;;;;50.08;19.10;;;;;;;-2.87;80.45;100787.97;5084035;28;20024;-87
2022/12/10 00:56:07;;;;;;;50.22;19.15;;;;;;;-2.92;81.60;100783.59;5085326;28;20028;-87
2022/12/10 00:58:36;;;;;;;47.00;19.80;;;;;;;-2.95;81.73;100766.28;5082466;28;20039;-86
2022/12/10 01:01:19;;;;;;;49.00;19.83;;;;;;;-2.82;80.69;100785.44;5106577;28;20031;-87
2022/12/10 01:03:44;;;;;;;;;;;;;;;-2.80;80.75;100780.28;5103291;28;20074;-87
2022/12/10 01:06:44;;;;;;;43.67;18.15;;;;;;;-2.88;81.07;100770.72;5080373;28;20353;-86
2022/12/10 01:09:12;;;;;;;48.80;18.80;;;;;;;-2.99;80.61;100763.63;5101673;28;20530;-87
2022/12/10 01:11:40;;;;;;;52.67;20.20;;;;;;;-2.94;81.63;100785.25;5095877;28;20032;-86
2022/12/10 01:14:09;;;;;;;51.05;19.80;;;;;;;-2.88;82.17;100785.38;5099499;28;20042;-86
2022/12/10 01:16:35;;;;;;;46.75;18.55;;;;;;;-2.97;81.10;100774.91;5077539;28;20032;-86
2022/12/10 01:19:00;;;;;;;49.80;19.70;;;;;;;-3.04;80.20;100786.00;5078860;28;20116;-86
2022/12/10 01:21:28;;;;;;;50.03;19.30;;;;;;;-3.13;80.20;100787.59;5104754;28;20059;-86
2022/12/10 01:23:54;;;;;;;54.92;20.63;;;;;;;-3.11;81.75;100790.22;5095387;28;20107;-86
2022/12/10 01:26:22;;;;;;;47.72;19.25;;;;;;;-3.18;80.42;100784.06;5076527;28;20042;-87
2022/12/10 01:28:49;;;;;;;60.88;21.23;;;;;;;-3.21;80.67;100789.22;5099110;28;20118;-87
2022/12/10 01:31:20;;;;;;;51.00;19.63;;;;;;;-3.19;82.64;100787.50;5087041;28;20034;-86
2022/12/10 01:33:46;;;;;;;54.53;21.73;;;;;;;-3.21;81.65;100796.97;5080314;28;20487;-87
2022/12/10 01:36:18;;;;;;;50.47;19.17;;;;;;;-3.21;81.42;100796.09;5087139;28;20112;-86
2022/12/10 01:38:44;;;;;;;44.20;18.67;;;;;;;-3.20;81.18;100810.75;5101108;28;20066;-86
2022/12/10 01:41:26;;;;;;;52.50;19.25;;;;;;;-3.09;82.17;100802.31;5108356;28;20567;-87
2022/12/10 01:44:25;;;;;;;53.08;19.65;;;;;;;-3.10;80.77;100803.16;5093935;28;20039;-86
2022/12/10 01:46:56;;;;;;;54.35;21.13;;;;;;;-3.03;83.25;100795.47;5075137;28;20088;-86
2022/12/10 01:49:32;;;;;;;59.13;20.38;;;;;;;-2.85;83.04;100804.34;5082778;28;20602;-87
2022/12/10 01:51:58;;;;;;;60.22;21.60;;;;;;;-2.94;82.50;100790.44;5099896;28;20055;-86
2022/12/10 01:54:30;;;;;;;52.13;21.38;;;;;;;-2.78;82.53;100814.81;5110059;28;20092;-86
2022/12/10 01:57:03;;;;;;;;;;;;;;;-2.64;81.58;100810.69;5085441;28;20491;-86
2022/12/10 01:59:30;;;;;;;48.90;18.63;;;;;;;-2.74;82.32;100786.41;5074709;28;20071;-86
2022/12/10 02:02:22;;;;;;;55.25;21.55;;;;;;;-2.66;82.89;100771.88;5099247;28;20107;-86
2022/12/10 02:04:53;;;;;;;59.83;22.30;;;;;;;-2.33;83.59;100809.34;5077928;28;20024;-86
2022/12/10 02:07:46;;;;;;;59.70;24.97;;;;;;;-2.37;83.87;100792.91;5099945;28;20483;-86
2022/12/10 02:10:39;;;;;;;57.38;21.77;;;;;;;-2.20;84.10;100810.34;5080116;28;20080;-86
2022/12/10 02:13:11;;;;;;;60.30;22.40;;;;;;;-2.15;85.17;100803.50;5092137;28;20434;-86
2022/12/10 02:15:41;;;;;;;;;;;;;;;-2.03;84.36;100813.13;5075024;28;20047;-86
2022/12/10 02:18:12;;;;;;;67.53;23.52;;;;;;;-2.11;84.43;100789.72;5095621;28;19922;-86
2022/12/10 02:20:51;;;;;;;67.28;24.55;;;;;;;-2.02;84.76;100799.31;5078541;28;20024;-86
2022/12/10 02:23:24;;;;;;;64.10;23.70;;;;;;;-1.93;84.48;100809.78;5077419;28;20770;-86
2022/12/10 02:26:10;;;;;;;61.00;24.75;;;;;;;-1.88;84.45;100806.38;5078874;28;20051;-86
2022/12/10 02:29:04;;;;;;;76.93;26.42;;;;;;;-1.88;84.21;100787.38;5110191;28;20023;-86
2022/12/10 02:31:31;;;;;;;78.90;27.88;;;;;;;-1.76;84.54;100807.38;5103892;28;20030;-86
2022/12/10 02:33:59;;;;;;;70.40;26.83;;;;;;;-1.75;85.28;100811.69;5075133;28;20629;-86
2022/12/10 02:36:31;;;;;;;93.20;29.65;;;;;;;-1.73;85.25;100802.19;5092170;28;20449;-86
2022/12/10 02:38:59;;;;;;;79.70;28.00;;;;;;;-1.73;85.02;100791.81;5081627;28;20181;-86
2022/12/10 02:41:32;;;;;;;74.53;28.17;;;;;;;-1.66;84.78;100793.63;5094132;28;20406;-86
2022/12/10 02:44:00;;;;;;;78.78;26.27;;;;;;;-1.34;83.79;100806.84;5095443;28;20383;-86
2022/12/10 02:46:30;;;;;;;76.60;25.15;;;;;;;-1.25;83.73;100808.66;5086028;28;20028;-86
2022/12/10 02:48:58;;;;;;;71.50;26.58;;;;;;;-1.25;83.66;100798.28;5100031;28;20463;-87
2022/12/10 02:51:23;;;;;;;71.38;24.95;;;;;;;-1.31;83.63;100778.34;5096334;28;20036;-86
2022/12/10 02:54:02;;;;;;;65.03;26.33;;;;;;;-1.19;83.55;100801.78;5104347;28;20471;-86
2022/12/10 02:56:36;;;;;;;68.15;24.50;;;;;;;-1.14;83.08;100807.84;5095877;28;20055;-87
2022/12/10 02:59:16;;;;;;;62.90;22.27;;;;;;;-1.14;82.99;100805.25;5080076;28;20032;-86
2022/12/10 03:02:09;;;;;;;70.28;24.95;;;;;;;-1.11;83.13;100809.63;5084682;28;20054;-87
2022/12/10 03:04:52;;;;;;;70.18;24.42;;;;;;;-1.10;83.31;100808.75;5075495;28;20028;-86
2022/12/10 03:07:40;;;;;;;71.85;25.45;;;;;;;-1.07;83.18;100817.44;5099389;28;20039;-87
2022/12/10 03:10:24;;;;;;;65.57;24.08;;;;;;;-1.20;83.08;100799.19;5079831;28;20471;-87
2022/12/10 03:12:58;;;;;;;66.72;24.25;;;;;;;-1.17;83.10;100801.78;5078527;28;20571;-87
2022/12/10 03:15:25;;;;;;;68.90;24.55;;;;;;;-1.22;83.15;100787.91;5097048;28;20254;-87
2022/12/10 03:17:51;;;;;;;67.55;25.90;;;;;;;-1.16;83.27;100807.00;5098466;28;20046;-87
2022/12/10 03:20:17;;;;;;;79.05;24.52;;;;;;;-1.14;83.32;100812.19;5103676;28;20115;-86
2022/12/10 03:22:46;;;;;;;84.75;27.15;;;;;;;-1.19;83.86;100819.06;5071226;28;20118;-87
2022/12/10 03:25:15;;;;;;;68.47;24.55;;;;;;;-1.23;83.84;100796.56;5075572;28;20028;-86
2022/12/10 03:27:42;;;;;;;58.03;23.33;;;;;;;-1.30;84.11;100803.44;5092998;28;20111;-87
2022/12/10 03:30:08;;;;;;;72.05;24.70;;;;;;;-1.22;84.37;100801.75;5081435;28;20023;-86
2022/12/10 03:32:33;;;;;;;71.78;23.30;;;;;;;-1.23;84.31;100805.19;5078736;28;20028;-86
2022/12/10 03:35:01;;;;;;;73.82;25.63;;;;;;;-1.32;84.19;100789.56;5098738;28;20024;-87
2022/12/10 03:37:28;;;;;;;64.85;22.88;;;;;;;-1.22;84.64;100808.66;5106216;28;20034;-86
2022/12/10 03:39:55;;;;;;;79.47;25.65;;;;;;;-1.23;84.09;100804.34;5075503;28;20038;-87
2022/12/10 03:42:21;;;;;;;60.40;23.45;;;;;;;-1.26;84.67;100806.91;5109632;28;20028;-86
2022/12/10 03:44:49;;;;;;;68.43;23.52;;;;;;;-1.20;84.71;100812.16;5073125;28;20020;-86
2022/12/10 03:47:15;;;;;;;82.50;24.83;;;;;;;-1.44;84.87;100774.81;5091619;28;20092;-87
2022/12/10 03:49:42;;;;;;;67.88;24.38;;;;;;;-1.37;84.90;100789.53;5099651;28;20506;-87
2022/12/10 03:52:07;;;;;;;71.20;23.85;;;;;;;-1.32;84.73;100784.38;5081321;28;20028;-87
2022/12/10 03:54:32;;;;;;;72.68;25.33;;;;;;;-1.34;84.88;100789.56;5091462;28;20032;-87
2022/12/10 03:56:58;;;;;;;61.55;21.95;;;;;;;-1.29;84.83;100793.06;5104893;28;20081;-87
2022/12/10 03:59:23;;;;;;;65.40;24.92;;;;;;;-1.12;84.55;100813.03;5102540;28;20110;-86
2022/12/10 04:01:48;;;;;;;71.40;24.45;;;;;;;-1.15;84.86;100811.31;5096163;28;20023;-86
2022/12/10 04:04:14;;;;;;;80.15;25.98;;;;;;;-1.12;85.00;100813.03;5083551;28;20111;-88
2022/12/10 04:06:40;;;;;;;70.72;26.95;;;;;;;-1.16;85.22;100817.38;5100153;28;20024;-86
2022/12/10 04:09:06;;;;;;;77.95;25.30;;;;;;;-1.09;85.50;100826.06;5077239;28;20024;-87
2022/12/10 04:11:31;;;;;;;82.53;27.00;;;;;;;-1.17;85.14;100807.81;5098783;28;20077;-87
2022/12/10 04:16:41;;;;;;;73.63;26.60;;;;;;;-1.20;85.20;100792.25;5101887;28;20501;-87
2022/12/10 04:19:10;;;;;;;66.20;23.25;;;;;;;-1.07;85.32;100804.47;5086983;28;20019;-86
2022/12/10 04:27:17;;;;;;;68.68;24.00;;;;;;;-1.10;84.84;100814.81;5090271;28;20043;-87
2022/12/10 04:29:42;;;;;;;72.72;25.58;;;;;;;-0.99;84.77;100816.59;5102319;28;20030;-86
2022/12/10 04:32:08;;;;;;;66.20;23.67;;;;;;;-0.97;84.81;100827.88;5101512;28;20103;-86
2022/12/10 04:34:33;;;;;;;76.18;23.42;;;;;;;-1.09;85.39;100815.69;5097570;28;20024;-87
2022/12/10 04:36:59;;;;;;;77.05;25.35;;;;;;;-1.12;85.46;100821.72;5076265;28;20081;-86
2022/12/10 04:39:25;;;;;;;83.40;25.70;;;;;;;-1.03;85.30;100820.91;5088711;28;20051;-86
2022/12/10 04:41:51;;;;;;;74.35;26.52;;;;;;;-1.05;85.31;100818.31;5104660;28;20517;-86
2022/12/10 04:44:17;;;;;;;84.05;26.20;;;;;;;-0.79;84.12;100822.81;5075342;28;20115;-87
2022/12/10 04:46:43;;;;;;;87.32;26.92;;;;;;;-0.64;84.00;100838.44;5079778;28;20034;-87
2022/12/10 04:49:08;;;;;;;76.60;24.95;;;;;;;-0.85;84.19;100827.94;5103154;28;20466;-86
2022/12/10 04:51:34;;;;;;;87.65;27.23;;;;;;;-0.81;84.36;100840.06;5082727;28;20495;-86
2022/12/10 04:54:00;;;;;;;82.35;26.58;;;;;;;-0.95;84.50;100820.97;5097452;28;20388;-86
2022/12/10 04:56:26;;;;;;;78.78;25.42;;;;;;;-0.94;84.78;100827.88;5106969;28;20116;-87
2022/12/10 04:58:51;;;;;;;78.75;27.17;;;;;;;-0.99;84.66;100822.66;5111004;28;20024;-86
2022/12/10 05:01:18;;;;;;;80.43;26.52;;;;;;;-0.95;85.06;100833.94;5084255;28;20493;-87
2022/12/10 05:03:44;;;;;;;87.93;26.10;;;;;;;-0.94;84.80;100840.84;5077016;28;20080;-86
2022/12/10 05:06:12;;;;;;;85.93;27.20;;;;;;;-0.98;85.34;100842.59;5080572;28;20024;-86
2022/12/10 05:08:39;;;;;;;85.85;25.15;;;;;;;-0.91;85.01;100846.94;5083686;28;20035;-86
2022/12/10 05:11:07;;;;;;;81.22;25.52;;;;;;;-1.10;85.07;100820.00;5092080;28;20036;-86
2022/12/10 05:13:32;;;;;;;93.68;29.88;;;;;;;-0.93;85.17;100845.19;5086887;28;20398;-87
2022/12/10 05:16:00;;;;;;;134.20;29.75;;;;;;;-1.10;85.45;100830.38;5080524;28;20042;-86
2022/12/10 05:18:25;;;;;;;98.40;29.35;;;;;;;-1.15;86.00;100828.63;5099746;28;20043;-86
2022/12/10 05:20:51;;;;;;;84.68;28.23;;;;;;;-1.11;85.68;100835.56;5103681;28;20024;-87
2022/12/10 05:23:28;;;;;;;83.60;26.25;;;;;;;-1.06;85.65;100847.69;5083734;28;20022;-87
2022/12/10 05:26:07;;;;;;;76.25;25.77;;;;;;;-1.07;85.77;100847.69;5086898;28;20032;-86
2022/12/10 05:28:35;;;;;;;70.50;23.20;;;;;;;-1.04;85.84;100845.97;5083770;28;20034;-86
2022/12/10 05:31:01;;;;;;;80.45;26.08;;;;;;;-1.26;85.87;100814.69;5082449;28;20043;-86
2022/12/10 05:33:27;;;;;;;91.90;26.50;;;;;;;-1.21;85.63;100826.84;5081054;28;20518;-86
2022/12/10 05:35:57;;;;;;;80.97;25.98;;;;;;;-1.06;85.64;100846.84;5099264;28;20028;-86
2022/12/10 05:38:24;;;;;;;87.70;24.85;;;;;;;-0.97;84.93;100846.03;5101339;28;20023;-86
2022/12/10 05:40:50;;;;;;;90.28;23.48;;;;;;;-1.05;84.71;100831.28;5087633;28;20489;-87
2022/12/10 05:43:15;;;;;;;64.78;20.27;;;;;;;-1.08;85.22;100828.66;5081648;28;20110;-86
2022/12/10 05:45:41;;;;;;;74.55;24.20;;;;;;;-1.22;85.38;100830.28;5077293;28;20127;-86
2022/12/10 05:48:06;;;;;;;104.55;28.10;;;;;;;-1.11;85.78;100844.22;5083574;28;20020;-86
2022/12/10 05:50:32;;;;;;;78.85;26.33;;;;;;;-1.20;86.08;100831.16;5081624;28;20495;-87
2022/12/10 05:52:58;;;;;;;67.78;23.52;;;;;;;-1.07;86.18;100848.56;5081829;28;20032;-87
2022/12/10 05:55:23;;;;;;;82.80;26.40;;;;;;;-1.02;85.90;100834.75;5109131;28;20111;-86
2022/12/10 05:57:49;;;;;;;82.35;25.27;;;;;;;-1.05;85.97;100833.88;5081482;28;20030;-87
2022/12/10 06:00:14;;;;;;;83.72;24.27;;;;;;;-1.04;86.00;100842.50;5087915;28;20019;-87
2022/12/10 06:02:39;;;;;;;80.20;25.10;;;;;;;-0.97;85.69;100853.81;5098853;28;20032;-87
2022/12/10 06:05:05;;;;;;;78.65;24.13;;;;;;;-1.04;85.96;100848.56;5083509;28;20016;-88
2022/12/10 06:07:30;;;;;;;51.85;16.05;;;;;;;-1.01;85.67;100832.16;5094333;28;20080;-88
2022/12/10 06:09:56;;;;;;;61.47;20.00;;;;;;;-1.13;85.55;100829.47;5105506;28;20027;-86
2022/12/10 06:12:21;;;;;;;75.90;24.05;;;;;;;-1.10;85.53;100845.94;5079359;28;20027;-86
2022/12/10 06:14:47;;;;;;;81.50;24.95;;;;;;;-0.95;85.74;100859.88;5082963;28;20406;-86
2022/12/10 06:17:12;;;;;;;86.07;26.63;;;;;;;-1.02;85.68;100847.75;5076899;28;20382;-86
2022/12/10 06:19:38;;;;;;;77.20;23.63;;;;;;;-0.95;85.46;100847.78;5097368;28;20116;-86
2022/12/10 06:22:03;;;;;;;78.53;24.23;;;;;;;-1.07;85.62;100837.31;5089816;28;20023;-86
2022/12/10 06:24:29;;;;;;;75.18;23.80;;;;;;;-0.93;85.85;100863.34;5099198;28;20530;-86
2022/12/10 06:26:54;;;;;;;84.38;27.77;;;;;;;-1.12;86.00;100828.63;5081064;28;20057;-86
2022/12/10 06:29:19;;;;;;;77.03;25.35;;;;;;;-1.11;86.07;100844.22;5101441;28;20038;-86
2022/12/10 06:31:45;;;;;;;58.13;19.35;;;;;;;-1.03;85.83;100849.44;5079326;28;20026;-86
2022/12/10 06:34:10;;;;;;;85.55;24.83;;;;;;;-1.13;86.40;100845.03;5081191;28;20387;-86
2022/12/10 06:36:36;;;;;;;75.85;23.20;;;;;;;-1.10;86.09;100835.56;5091348;28;20030;-86
2022/12/10 06:39:02;;;;;;;59.85;19.20;;;;;;;-0.93;85.53;100840.00;5108345;28;20038;-86
2022/12/10 06:41:27;;;;;;;71.47;21.70;;;;;;;-0.84;85.40;100858.22;5104178;28;20027;-87
2022/12/10 06:43:52;;;;;;;81.35;24.45;;;;;;;-0.80;85.57;100866.03;5088506;28;20024;-86
2022/12/10 06:46:20;;;;;;;76.05;24.75;;;;;;;-0.86;85.67;100867.72;5073586;28;20028;-86
2022/12/10 06:48:46;;;;;;;67.60;22.15;;;;;;;-0.80;85.64;100863.44;5082246;28;20032;-87
2022/12/10 06:51:13;;;;;;;76.07;24.88;;;;;;;-0.75;85.25;100870.38;5089975;28;20034;-86
2022/12/10 06:53:41;;;;;;;71.38;22.27;;;;;;;-0.73;85.22;100863.50;5108197;28;20375;-86
2022/12/10 06:56:10;;;;;;;59.60;19.35;;;;;;;-0.74;85.10;100869.56;5091293;28;20055;-87
2022/12/10 06:58:35;;;;;;;68.65;21.35;;;;;;;-0.70;84.81;100879.06;5076208;28;20046;-86
2022/12/10 07:01:05;;;;;;;70.70;22.02;;;;;;;-0.68;84.74;100887.75;5076840;28;20028;-86
2022/12/10 07:03:31;;;;;;;70.82;23.67;;;;;;;-0.74;84.78;100880.81;5082056;28;20047;-86
2022/12/10 07:06:00;;;;;;;79.88;26.42;;;;;;;-0.83;85.05;100889.38;5101756;28;20408;-86
2022/12/10 07:08:25;;;;;;;64.00;19.48;;;;;;;-0.78;85.17;100887.69;5080980;28;20027;-86
2022/12/10 07:10:51;;;;;;;71.32;23.63;;;;;;;-0.92;85.59;100878.94;5095662;28;20043;-86
2022/12/10 07:13:16;;;;;;;74.47;23.85;;;;;;;-0.95;85.70;100884.09;5072498;28;20028;-86
2022/12/10 07:15:41;;;;;;;66.75;21.75;;;;;;;-0.94;85.64;100877.19;5081945;28;20382;-86
2022/12/10 07:18:06;;;;;;;76.07;21.80;;;;;;;-0.88;85.66;100885.03;5083331;28;20029;-86
2022/12/10 07:20:32;;;;;;;74.20;24.70;;;;;;;-0.91;85.43;100872.03;5106317;28;20270;-86
2022/12/10 07:22:57;;;;;;;65.35;20.98;;;;;;;-0.87;85.44;100890.22;5075296;28;20091;-86
2022/12/10 07:25:22;;;;;;;64.43;21.50;;;;;;;-0.79;85.25;100891.16;5075223;28;20031;-88
2022/12/10 07:27:47;;;;;;;70.10;23.17;;;;;;;-0.84;85.66;100895.44;5102219;28;20048;-86
2022/12/10 07:30:13;;;;;;;70.35;22.20;;;;;;;-0.85;85.34;100892.81;5081935;28;20023;-87
2022/12/10 07:32:38;;;;;;;71.97;23.20;;;;;;;-0.91;85.54;100891.06;5098760;28;20386;-86
2022/12/10 07:35:04;;;;;;;66.85;21.48;;;;;;;-0.89;85.02;100891.06;5078598;28;20111;-86
2022/12/10 07:37:29;;;;;;;69.63;22.58;;;;;;;-0.83;85.19;100902.38;5079292;28;20024;-86
2022/12/10 07:39:54;;;;;;;69.20;19.98;;;;;;;-0.96;85.57;100904.84;5097917;28;20076;-86
2022/12/10 07:42:20;;;;;;;76.95;22.15;;;;;;;-0.95;85.88;100911.78;5094237;28;20035;-86
2022/12/10 07:44:45;;;;;;;85.88;23.40;;;;;;;-0.90;85.92;100907.50;5073279;28;20425;-86
2022/12/10 07:47:10;;;;;;;71.78;24.20;;;;;;;-0.87;85.43;100917.91;5104670;28;20519;-86
2022/12/10 07:49:36;;;;;;;87.55;26.05;;;;;;;-0.86;85.78;100901.47;5079269;28;20211;-86
2022/12/10 07:52:01;;;;;;;75.65;21.75;;;;;;;-0.82;85.31;100913.63;5098248;28;20110;-86
2022/12/10 07:54:27;;;;;;;63.20;22.08;;;;;;;-0.96;85.53;100897.06;5110705;28;20068;-85
2022/12/10 07:56:52;;;;;;;72.35;21.85;;;;;;;-0.92;85.91;100909.22;5105027;28;20066;-85
2022/12/10 07:59:17;;;;;;;85.68;25.77;;;;;;;-0.88;86.09;100921.38;5072270;28;20076;-85
2022/12/10 08:01:43;;;;;;;80.50;23.55;;;;;;;-0.82;85.57;100918.81;5084181;28;20027;-86
2022/12/10 08:04:08;;;;;;;85.20;23.63;;;;;;;-0.88;85.61;100911.84;5101322;28;20072;-86
2022/12/10 08:06:34;;;;;;;76.25;24.35;;;;;;;-0.84;85.81;100910.13;5101935;28;20069;-86
2022/12/10 08:09:00;;;;;;;84.97;24.88;;;;;;;-0.68;85.42;100927.56;5101784;28;20031;-85
2022/12/10 08:11:26;;;;;;;82.28;24.70;;;;;;;-0.71;85.56;100917.13;5082342;28;20031;-86
2022/12/10 08:13:52;;;;;;;72.13;23.90;;;;;;;-0.69;85.77;100933.63;5076973;28;20387;-87
2022/12/10 08:16:22;;;;;;;41.78;14.43;;;;;;;-0.69;85.08;100928.41;5103297;28;20023;-86
2022/12/10 08:18:48;;;;;;;75.82;21.02;;;;;;;-0.85;85.93;100937.81;5080273;28;20024;-86
2022/12/10 08:21:17;;;;;;;79.18;24.17;;;;;;;-0.73;86.10;100951.75;5108893;28;20536;-86
2022/12/10 08:23:43;;;;;;;76.80;24.27;;;;;;;-0.73;86.11;100955.22;5087046;28;20020;-87
2022/12/10 08:26:17;;;;;;;85.47;24.75;;;;;;;-0.78;85.84;100944.78;5094591;28;20470;-86
2022/12/10 08:28:43;;;;;;;77.60;24.23;;;;;;;-0.81;86.32;100942.16;5104303;28;20020;-86
2022/12/10 08:31:11;;;;;;;108.97;26.77;;;;;;;-0.70;86.31;100960.44;5080707;28;20044;-85
2022/12/10 08:33:37;;;;;;;101.05;28.27;;;;;;;-0.68;85.96;100956.13;5087116;28;20471;-86
2022/12/10 08:36:04;;;;;;;81.95;24.23;;;;;;;-0.62;86.06;100950.09;5081059;28;20483;-87
2022/12/10 08:38:30;;;;;;;85.60;28.15;;;;;;;-0.62;86.12;100953.56;5096045;28;20082;-87
2022/12/10 08:40:55;;;;;;;87.70;26.33;;;;;;;-0.64;85.61;100957.88;5090606;28;20023;-87
2022/12/10 08:43:21;;;;;;;80.70;24.63;;;;;;;-0.70;85.91;100952.66;5078663;28;20012;-88
2022/12/10 08:45:46;;;;;;;73.45;23.10;;;;;;;-0.58;85.78;100951.84;5080803;28;20028;-87
2022/12/10 08:48:11;;;;;;;92.25;23.67;;;;;;;-0.59;85.51;100958.78;5105476;28;20023;-88
2022/12/10 08:50:37;;;;;;;76.53;20.92;;;;;;;-0.50;85.49;100959.72;5078131;28;20075;-87
2022/12/10 08:53:03;;;;;;;72.63;21.73;;;;;;;-0.52;85.58;100957.94;5077812;28;20127;-87
2022/12/10 08:55:28;;;;;;;77.32;21.35;;;;;;;-0.44;85.42;100963.19;5077221;28;20111;-87
2022/12/10 08:57:53;;;;;;;92.20;23.95;;;;;;;-0.48;84.99;100968.38;5094250;28;20548;-88
2022/12/10 09:00:19;;;;;;;108.35;26.10;;;;;;;-0.52;85.33;100970.06;5094920;28;20030;-88
2022/12/10 09:02:45;;;;;;;122.40;26.05;;;;;;;-0.62;85.65;100969.13;5084248;28;20052;-88
2022/12/10 09:05:10;;;;;;;72.07;22.05;;;;;;;-0.57;85.81;100971.75;5080597;28;20008;-87
2022/12/10 09:07:36;;;;;;;80.57;20.75;;;;;;;-0.54;85.81;100964.88;5098071;28;20505;-88
2022/12/10 09:10:01;;;;;;;77.47;23.20;;;;;;;-0.44;85.58;100972.72;5085128;28;20183;-88
2022/12/10 09:12:26;;;;;;;74.28;20.83;;;;;;;-0.34;85.40;100977.97;5102223;28;20483;-87
2022/12/10 09:14:52;;;;;;;79.75;23.73;;;;;;;-0.35;85.00;100980.59;5097449;28;20032;-87
2022/12/10 09:17:17;;;;;;;73.38;22.27;;;;;;;-0.30;85.27;100974.56;5079418;28;20050;-88
2022/12/10 09:19:42;;;;;;;79.65;24.55;;;;;;;-0.42;84.91;100963.19;5080006;28;20070;-88
2022/12/10 09:22:08;;;;;;;68.30;20.48;;;;;;;-0.35;84.73;100977.97;5086520;28;20023;-87
2022/12/10 09:24:34;;;;;;;69.55;21.70;;;;;;;-0.40;85.23;100983.16;5077651;28;20184;-87
2022/12/10 09:27:00;;;;;;;72.03;21.95;;;;;;;-0.48;85.37;100974.44;5075967;28;20168;-87
2022/12/10 09:29:25;;;;;;;76.30;23.55;;;;;;;-0.42;85.10;100981.38;5079729;28;20502;-87
2022/12/10 09:31:51;;;;;;;79.22;22.75;;;;;;;-0.34;84.80;100984.91;5078983;28;20047;-87
2022/12/10 09:34:17;;;;;;;76.80;22.98;;;;;;;-0.44;84.66;100980.53;5100210;28;20027;-87
2022/12/10 09:36:42;;;;;;;69.55;21.00;;;;;;;-0.40;84.78;100990.06;5080425;28;20120;-88
2022/12/10 09:39:08;;;;;;;74.75;21.65;;;;;;;-0.45;84.72;100982.25;5079509;28;20046;-87
2022/12/10 09:41:42;;;;;;;68.90;22.42;;;;;;;-0.24;84.90;101007.47;5101711;28;20517;-87
2022/12/10 09:44:17;;;;;;;61.67;18.77;;;;;;;-0.13;84.86;101011.03;5080963;28;20038;-86
2022/12/10 09:46:54;;;;;;;62.03;18.58;;;;;;;-0.11;84.55;101003.25;5077536;28;20035;-87
2022/12/10 09:49:39;;;;;;;71.35;22.70;;;;;;;-0.14;84.49;100991.13;5087671;28;20048;-87
2022/12/10 09:52:11;;;;;;;72.20;24.92;;;;;;;-0.20;84.84;101005.78;5100211;28;20036;-87
2022/12/10 09:54:43;;;;;;;92.88;28.15;;;;;;;-0.39;85.19;100997.00;5077822;28;20471;-88
2022/12/10 09:57:25;;;;;;;71.65;21.13;;;;;;;-0.22;84.89;101005.78;5090810;28;20031;-86
2022/12/10 09:59:52;;;;;;;64.50;18.67;;;;;;;-0.26;85.43;101012.69;5106561;28;20434;-88
2022/12/10 10:02:27;;;;;;;69.60;20.50;;;;;;;-0.28;85.15;101017.00;5096328;28;20027;-87
2022/12/10 10:05:06;;;;;;;79.25;22.70;;;;;;;-0.23;85.33;101022.25;5081120;28;20054;-87
2022/12/10 10:07:34;;;;;;;78.80;21.85;;;;;;;-0.28;85.06;101021.31;5102270;28;20023;-87
2022/12/10 10:10:04;;;;;;;78.43;21.13;;;;;;;-0.22;85.17;101023.97;5098537;28;20532;-86
2022/12/10 10:12:33;;;;;;;72.28;21.35;;;;;;;-0.28;85.07;100997.94;5103113;28;20016;-87
2022/12/10 10:15:09;;;;;;;66.47;20.38;;;;;;;-0.13;85.03;101024.03;5101191;28;20028;-87
2022/12/10 10:17:37;;;;;;;61.90;19.77;;;;;;;-0.07;85.07;101020.59;5077303;28;20030;-87
2022/12/10 10:20:03;;;;;;;72.93;21.40;;;;;;;-0.08;84.96;101011.06;5094102;28;20092;-87
2022/12/10 10:22:29;;;;;;;82.55;21.98;;;;;;;-0.05;84.90;101022.34;5085675;28;20028;-87
2022/12/10 10:24:55;;;;;;;73.75;22.23;;;;;;;-0.02;84.49;101017.16;5085351;28;20035;-87
2022/12/10 10:27:28;;;;;;;64.72;20.13;;;;;;;0.12;84.31;101031.97;5107018;28;20027;-88
2022/12/10 10:29:56;;;;;;;75.00;21.40;;;;;;;0.12;83.95;101025.03;5077101;28;20483;-86
2022/12/10 10:32:52;;;;;;;69.22;20.67;;;;;;;0.09;84.15;101022.41;5080337;28;20463;-87
2022/12/10 10:35:30;;;;;;;64.38;19.98;;;;;;;0.08;84.57;101025.88;5089153;28;20119;-87
2022/12/10 10:37:59;;;;;;;75.32;20.42;;;;;;;0.06;84.48;101018.94;5101646;28;20039;-87
2022/12/10 10:40:29;;;;;;;69.38;20.40;;;;;;;0.13;84.74;101021.56;5098524;28;20023;-87
2022/12/10 10:42:57;;;;;;;68.80;20.23;;;;;;;0.07;84.47;101003.34;5094028;28;20027;-87
2022/12/10 10:45:38;;;;;;;61.33;18.02;;;;;;;0.12;84.50;101021.56;5102955;28;20020;-86
2022/12/10 10:48:19;;;;;;;75.65;20.23;;;;;;;0.28;84.05;101012.09;5100642;28;20059;-86
2022/12/10 10:51:06;;;;;;;68.07;20.10;;;;;;;0.13;84.07;101023.31;5081225;28;20040;-85
2022/12/10 10:53:45;;;;;;;76.72;21.77;;;;;;;0.14;83.91;101017.22;5087832;28;20039;-86
2022/12/10 10:56:21;;;;;;;63.15;20.73;;;;;;;-0.02;84.32;101004.16;5076249;28;20026;-84
2022/12/10 10:58:54;;;;;;;69.20;19.88;;;;;;;-0.01;85.02;101013.69;5090290;28;20028;-85
2022/12/10 11:01:20;;;;;;;93.10;26.70;;;;;;;-0.26;85.30;101014.41;5072511;28;20143;-85
2022/12/10 11:03:54;;;;;;;68.90;20.83;;;;;;;-0.15;85.76;101010.13;5098524;28;20051;-85
2022/12/10 11:06:20;;;;;;;78.35;20.88;;;;;;;-0.13;85.72;101012.78;5091377;28;20506;-85
2022/12/10 11:08:47;;;;;;;80.32;25.00;;;;;;;-0.33;85.74;100987.53;5095934;28;20143;-86
2022/12/10 11:11:19;;;;;;;70.78;20.08;;;;;;;-0.19;85.78;100991.94;5079726;28;20089;-85
2022/12/10 11:13:45;;;;;;;75.32;22.52;;;;;;;-0.05;85.71;101001.56;5098443;28;20028;-85
2022/12/10 11:16:21;;;;;;;66.53;20.95;;;;;;;0.01;85.46;101010.25;5097151;28;20054;-85
2022/12/10 11:19:01;;;;;;;64.72;20.42;;;;;;;0.06;85.47;101009.41;5092466;28;20495;-85
2022/12/10 11:21:28;;;;;;;68.40;20.30;;;;;;;-0.03;85.18;100994.63;5093416;28;20031;-85
2022/12/10 11:23:56;;;;;;;69.55;23.58;;;;;;;-0.05;85.40;101001.56;5086119;28;20019;-85
2022/12/10 11:26:34;;;;;;;64.38;21.67;;;;;;;0.02;85.32;101005.06;5102279;28;20183;-85